createdAt,value
2018-07-12T00:01:14.446Z,24.40
2018-07-12T00:03:41.201Z,23.17
2018-07-12T00:06:07.785Z,23.27
2018-07-12T00:08:34.394Z,24.07
2018-07-12T00:11:00.985Z,24.27
2018-07-12T00:13:27.593Z,24.90
2018-07-12T00:15:54.178Z,24.43
2018-07-12T00:18:20.793Z,25.97
2018-07-12T00:20:47.400Z,26.80
2018-07-12T00:23:13.996Z,28.17
2018-07-12T00:25:40.593Z,26.43
2018-07-12T00:28:07.298Z,27.27
2018-07-12T00:30:34.006Z,27.20
2018-07-12T00:33:00.665Z,27.23
2018-07-12T00:35:27.276Z,26.30
2018-07-12T00:37:53.866Z,25.50
2018-07-12T00:40:20.452Z,28.47
2018-07-12T00:42:47.450Z,28.33
2018-07-12T00:45:14.041Z,28.57
2018-07-12T00:47:40.913Z,28.67
2018-07-12T00:50:07.517Z,27.43
2018-07-12T00:52:34.724Z,27.90
2018-07-12T00:55:01.321Z,28.23
2018-07-12T00:57:27.913Z,27.00
2018-07-12T00:59:54.504Z,27.43
2018-07-12T01:02:21.114Z,27.10
2018-07-12T01:04:47.705Z,27.33
2018-07-12T01:07:14.290Z,27.70
2018-07-12T01:09:40.891Z,28.03
2018-07-12T01:12:07.481Z,26.27
2018-07-12T01:14:34.116Z,25.70
2018-07-12T01:17:00.711Z,25.90
2018-07-12T01:19:27.314Z,26.83
2018-07-12T01:21:54.241Z,28.10
2018-07-12T01:24:20.837Z,27.07
2018-07-12T01:26:47.433Z,27.23
2018-07-12T01:29:14.179Z,27.27
2018-07-12T01:31:40.773Z,28.50
2018-07-12T01:34:07.360Z,27.67
2018-07-12T01:36:33.974Z,27.17
2018-07-12T01:39:00.553Z,25.27
2018-07-12T01:41:27.174Z,26.83
2018-07-12T01:43:53.767Z,27.60
2018-07-12T01:46:20.364Z,26.90
2018-07-12T01:48:46.953Z,26.20
2018-07-12T01:51:13.628Z,27.10
2018-07-12T01:53:40.253Z,26.63
2018-07-12T01:56:06.864Z,26.30
2018-07-12T01:58:33.485Z,28.83
2018-07-12T02:01:00.079Z,27.17
2018-07-12T02:03:26.660Z,26.37
2018-07-12T02:05:53.255Z,25.73
2018-07-12T02:08:19.853Z,25.50
2018-07-12T02:10:46.530Z,26.90
2018-07-12T02:13:13.140Z,27.40
2018-07-12T02:15:39.746Z,26.70
2018-07-12T02:18:06.337Z,27.33
2018-07-12T02:20:32.947Z,27.57
2018-07-12T02:22:59.524Z,25.87
2018-07-12T02:25:26.138Z,25.47
2018-07-12T02:27:52.739Z,25.60
2018-07-12T02:30:19.340Z,24.20
2018-07-12T02:32:45.926Z,25.00
2018-07-12T02:35:12.594Z,23.63
2018-07-12T02:37:39.125Z,24.67
2018-07-12T02:40:05.765Z,24.80
2018-07-12T02:42:32.432Z,24.27
2018-07-12T02:44:59.017Z,24.97
2018-07-12T02:47:25.627Z,23.80
2018-07-12T02:49:52.213Z,24.13
2018-07-12T02:52:18.841Z,23.20
2018-07-12T02:54:45.447Z,23.73
2018-07-12T02:57:12.021Z,21.80
2018-07-12T02:59:38.620Z,21.40
2018-07-12T03:02:05.218Z,22.50
2018-07-12T03:04:31.821Z,23.00
2018-07-12T03:06:58.409Z,23.17
2018-07-12T03:09:25.020Z,22.70
2018-07-12T03:11:51.631Z,24.50
2018-07-12T03:14:18.232Z,23.83
2018-07-12T03:16:44.819Z,21.80
2018-07-12T03:19:11.406Z,22.93
2018-07-12T03:21:38.001Z,23.23
2018-07-12T03:24:04.589Z,22.97
2018-07-12T03:26:31.197Z,21.50
2018-07-12T03:28:57.798Z,20.97
2018-07-12T03:31:24.389Z,20.60
2018-07-12T03:33:51.026Z,20.10
2018-07-12T03:36:17.597Z,20.13
2018-07-12T03:38:44.188Z,20.10
2018-07-12T03:41:10.797Z,19.60
2018-07-12T03:43:37.396Z,19.27
2018-07-12T03:46:03.994Z,20.00
2018-07-12T03:48:30.623Z,18.60
2018-07-12T03:50:57.208Z,20.50
2018-07-12T03:53:23.807Z,20.67
2018-07-12T03:55:56.376Z,21.80
2018-07-12T03:58:22.977Z,20.97
2018-07-12T04:00:49.568Z,23.10
2018-07-12T04:03:16.184Z,22.00
2018-07-12T04:05:42.803Z,23.27
2018-07-12T04:08:09.394Z,21.77
2018-07-12T04:10:35.997Z,21.70
2018-07-12T04:13:02.590Z,22.17
2018-07-12T04:15:29.197Z,23.00
2018-07-12T04:17:55.790Z,22.00
2018-07-12T04:20:22.453Z,20.33
2018-07-12T04:22:49.068Z,20.57
2018-07-12T04:25:15.670Z,21.40
2018-07-12T04:27:42.257Z,20.37
2018-07-12T04:30:08.896Z,20.47
2018-07-12T04:32:35.493Z,21.40
2018-07-12T04:35:02.079Z,22.07
2018-07-12T04:37:28.679Z,22.27
2018-07-12T04:39:55.276Z,21.10
2018-07-12T04:42:21.868Z,21.63
2018-07-12T04:44:48.452Z,21.83
2018-07-12T04:47:15.049Z,21.60
2018-07-12T04:49:41.699Z,22.70
2018-07-12T04:52:08.282Z,21.63
2018-07-12T04:54:34.885Z,19.60
2018-07-12T04:57:01.519Z,20.00
2018-07-12T04:59:28.068Z,18.77
2018-07-12T05:01:54.730Z,20.50
2018-07-12T05:04:21.617Z,22.37
2018-07-12T05:06:48.205Z,19.70
2018-07-12T05:09:14.802Z,20.60
2018-07-12T05:11:41.502Z,20.00
2018-07-12T05:14:08.152Z,20.73
2018-07-12T05:16:34.741Z,20.00
2018-07-12T05:19:01.377Z,19.50
2018-07-12T05:21:27.985Z,19.43
2018-07-12T05:23:54.578Z,19.87
2018-07-12T05:26:21.178Z,18.80
2018-07-12T05:28:47.769Z,20.47
2018-07-12T05:31:14.365Z,21.90
2018-07-12T05:33:40.961Z,23.13
2018-07-12T05:36:14.589Z,22.00
2018-07-12T05:38:41.732Z,22.70
2018-07-12T05:41:09.000Z,22.07
2018-07-12T05:43:36.205Z,21.20
2018-07-12T05:46:03.332Z,22.13
2018-07-12T05:48:30.452Z,21.50
2018-07-12T05:50:57.550Z,21.77
2018-07-12T05:53:24.649Z,21.53
2018-07-12T05:55:51.753Z,22.40
2018-07-12T05:58:18.873Z,22.20
2018-07-12T06:00:46.004Z,22.37
2018-07-12T06:03:13.082Z,21.57
2018-07-12T06:05:40.240Z,22.83
2018-07-12T06:08:07.404Z,23.30
2018-07-12T06:10:34.504Z,23.73
2018-07-12T06:13:01.601Z,25.17
2018-07-12T06:15:28.708Z,25.17
2018-07-12T06:17:55.836Z,26.40
2018-07-12T06:20:23.216Z,26.43
2018-07-12T06:22:50.580Z,27.10
2018-07-12T06:25:17.680Z,27.10
2018-07-12T06:27:44.790Z,30.73
2018-07-12T06:30:11.960Z,34.87
2018-07-12T06:32:39.146Z,35.23
2018-07-12T06:35:06.255Z,36.73
2018-07-12T06:37:33.360Z,32.57
2018-07-12T06:40:00.508Z,32.40
2018-07-12T06:42:27.680Z,32.30
2018-07-12T06:44:54.785Z,33.80
2018-07-12T06:47:21.867Z,30.23
2018-07-12T06:49:49.037Z,31.43
2018-07-12T06:52:16.187Z,35.33
2018-07-12T06:54:43.381Z,38.10
2018-07-12T06:57:10.651Z,37.33
2018-07-12T06:59:37.777Z,40.50
2018-07-12T07:02:05.325Z,41.50
2018-07-12T07:04:32.420Z,41.40
2018-07-12T07:06:59.560Z,43.50
2018-07-12T07:09:26.753Z,42.20
2018-07-12T07:11:53.852Z,44.97
2018-07-12T07:14:20.984Z,42.23
2018-07-12T07:16:48.268Z,38.07
2018-07-12T07:19:15.404Z,40.20
2018-07-12T07:21:42.599Z,40.10
2018-07-12T07:24:09.728Z,39.70
2018-07-12T07:26:36.836Z,41.20
2018-07-12T07:29:04.018Z,41.20
2018-07-12T07:31:31.194Z,41.80
2018-07-12T07:33:58.309Z,42.07
2018-07-12T07:36:25.428Z,38.47
2018-07-12T07:38:52.539Z,41.80
2018-07-12T07:41:19.761Z,40.73
2018-07-12T07:43:46.879Z,38.07
2018-07-12T07:46:14.019Z,40.60
2018-07-12T07:48:41.134Z,39.20
2018-07-12T07:51:08.936Z,41.67
2018-07-12T07:53:36.037Z,39.80
2018-07-12T07:56:03.167Z,39.80
2018-07-12T07:58:30.264Z,42.60
2018-07-12T08:00:57.365Z,41.97
2018-07-12T08:03:24.531Z,45.07
2018-07-12T08:05:51.561Z,40.70
2018-07-12T08:08:18.664Z,46.63
2018-07-12T08:10:45.773Z,43.57
2018-07-12T08:13:12.893Z,43.10
2018-07-12T08:15:39.983Z,41.10
2018-07-12T08:18:07.084Z,41.70
2018-07-12T08:20:34.225Z,42.47
2018-07-12T08:23:01.321Z,40.50
2018-07-12T08:25:28.481Z,42.20
2018-07-12T08:28:01.140Z,39.60
2018-07-12T08:30:28.264Z,41.90
2018-07-12T08:32:55.373Z,42.60
2018-07-12T08:35:22.585Z,42.40
2018-07-12T08:37:50.005Z,39.53
2018-07-12T08:40:17.156Z,40.73
2018-07-12T08:42:44.272Z,41.63
2018-07-12T08:45:11.378Z,36.73
2018-07-12T08:47:38.790Z,35.20
2018-07-12T08:50:06.034Z,33.27
2018-07-12T08:52:33.158Z,34.10
2018-07-12T08:55:00.288Z,35.50
2018-07-12T08:57:27.545Z,34.63
2018-07-12T08:59:54.808Z,37.10
2018-07-12T09:02:21.938Z,35.20
2018-07-12T09:04:49.044Z,34.03
2018-07-12T09:07:16.169Z,35.90
2018-07-12T09:09:43.296Z,36.30
2018-07-12T09:12:10.485Z,36.97
2018-07-12T09:14:37.777Z,37.60
2018-07-12T09:17:04.878Z,31.87
2018-07-12T09:19:31.976Z,30.03
2018-07-12T09:21:59.081Z,27.50
2018-07-12T09:24:26.180Z,28.67
2018-07-12T09:26:53.342Z,30.43
2018-07-12T09:29:20.484Z,29.40
2018-07-12T09:31:47.609Z,28.20
2018-07-12T09:34:14.807Z,28.43
2018-07-12T09:36:41.893Z,29.50
2018-07-12T09:39:09.001Z,29.30
2018-07-12T09:41:36.106Z,31.30
2018-07-12T09:44:03.213Z,30.30
2018-07-12T09:46:30.321Z,28.33
2018-07-12T09:48:57.479Z,27.20
2018-07-12T09:51:24.537Z,26.50
2018-07-12T09:53:51.633Z,24.60
2018-07-12T09:56:18.938Z,24.60
2018-07-12T09:58:45.911Z,28.33
2018-07-12T10:01:18.675Z,27.30
2018-07-12T10:03:54.517Z,28.10
2018-07-12T10:06:25.551Z,27.83
2018-07-12T10:08:56.045Z,29.33
2018-07-12T10:11:28.567Z,26.20
2018-07-12T10:15:01.538Z,27.10
2018-07-12T10:17:34.261Z,26.57
2018-07-12T10:20:01.585Z,26.47
2018-07-12T10:22:28.669Z,25.80
2018-07-12T10:24:55.797Z,22.13
2018-07-12T10:27:22.912Z,21.30
2018-07-12T10:29:50.041Z,20.17
2018-07-12T10:32:17.105Z,19.67
2018-07-12T10:34:44.209Z,18.90
2018-07-12T10:37:11.305Z,20.80
2018-07-12T10:39:38.405Z,20.10
2018-07-12T10:42:05.561Z,22.63
2018-07-12T10:44:32.713Z,23.27
2018-07-12T10:46:59.792Z,22.50
2018-07-12T10:49:26.895Z,20.47
2018-07-12T10:51:54.043Z,21.80
2018-07-12T10:54:21.151Z,19.80
2018-07-12T10:56:48.649Z,18.03
2018-07-12T10:59:15.766Z,17.77
2018-07-12T11:01:42.905Z,17.90
2018-07-12T11:04:10.096Z,19.77
2018-07-12T11:06:37.204Z,21.60
2018-07-12T11:09:05.658Z,20.80
2018-07-12T11:11:32.698Z,20.40
2018-07-12T11:13:59.827Z,20.90
2018-07-12T11:16:26.932Z,20.97
2018-07-12T11:18:54.034Z,21.87
2018-07-12T11:21:21.145Z,21.10
2018-07-12T11:23:48.248Z,20.07
2018-07-12T11:26:15.353Z,21.47
2018-07-12T11:28:42.883Z,21.20
2018-07-12T11:31:09.984Z,20.77
2018-07-12T11:33:51.649Z,19.80
2018-07-12T11:36:18.772Z,16.73
2018-07-12T11:38:46.380Z,16.40
2018-07-12T11:41:13.573Z,17.60
2018-07-12T11:43:40.706Z,17.40
2018-07-12T11:46:09.017Z,16.70
2018-07-12T11:48:37.281Z,16.80
2018-07-12T11:51:04.381Z,16.60
2018-07-12T11:53:31.500Z,18.77
2018-07-12T11:55:58.656Z,20.23
2018-07-12T11:58:26.144Z,20.20
2018-07-12T12:00:54.312Z,20.93
2018-07-12T12:03:21.444Z,21.67
2018-07-12T12:05:48.556Z,20.67
2018-07-12T12:08:15.665Z,21.30
2018-07-12T12:10:43.379Z,22.57
2018-07-12T12:13:10.481Z,20.40
2018-07-12T12:15:37.944Z,20.53
2018-07-12T12:18:05.032Z,19.87
2018-07-12T12:20:32.205Z,16.37
2018-07-12T12:22:59.633Z,16.60
2018-07-12T12:25:26.744Z,16.63
2018-07-12T12:27:54.338Z,17.70
2018-07-12T12:30:21.513Z,19.17
2018-07-12T12:32:48.632Z,18.17
2018-07-12T12:35:15.806Z,17.47
2018-07-12T12:37:42.916Z,17.90
2018-07-12T12:40:10.022Z,15.80
2018-07-12T12:42:37.120Z,16.10
2018-07-12T12:45:04.289Z,14.43
2018-07-12T12:47:31.409Z,13.93
2018-07-12T12:49:58.621Z,15.07
2018-07-12T12:52:25.729Z,15.13
2018-07-12T12:54:52.833Z,14.90
2018-07-12T12:57:20.056Z,15.07
2018-07-12T12:59:47.171Z,14.70
2018-07-12T13:02:14.617Z,14.10
2018-07-12T13:04:41.793Z,14.47
2018-07-12T13:07:09.075Z,14.17
2018-07-12T13:09:36.161Z,14.63
2018-07-12T13:12:03.280Z,14.60
2018-07-12T13:14:30.404Z,13.87
2018-07-12T13:16:57.545Z,13.77
2018-07-12T13:19:24.642Z,14.60
2018-07-12T13:21:51.847Z,12.93
2018-07-12T13:24:19.072Z,13.77
2018-07-12T13:26:46.284Z,13.73
2018-07-12T13:29:13.500Z,13.03
2018-07-12T13:31:40.656Z,14.27
2018-07-12T13:34:08.100Z,14.73
2018-07-12T13:36:35.285Z,14.23
2018-07-12T13:39:02.593Z,12.93
2018-07-12T13:41:29.760Z,13.00
2018-07-12T13:44:02.609Z,13.07
2018-07-12T13:46:29.721Z,13.10
2018-07-12T13:48:56.833Z,13.60
2018-07-12T13:51:23.953Z,12.00
2018-07-12T13:53:51.052Z,13.20
2018-07-12T13:56:18.226Z,12.60
2018-07-12T13:58:45.463Z,15.13
2018-07-12T14:01:12.583Z,13.90
2018-07-12T14:03:39.771Z,14.60
2018-07-12T14:06:06.953Z,13.40
2018-07-12T14:08:34.044Z,13.90
2018-07-12T14:11:01.172Z,14.10
2018-07-12T14:13:28.312Z,14.17
2018-07-12T14:15:55.480Z,15.10
2018-07-12T14:18:22.569Z,14.23
2018-07-12T14:20:49.676Z,15.37
2018-07-12T14:23:16.789Z,14.83
2018-07-12T14:25:43.893Z,15.57
2018-07-12T14:28:11.001Z,15.70
2018-07-12T14:30:38.154Z,16.00
2018-07-12T14:33:06.257Z,14.10
2018-07-12T14:35:33.370Z,13.83
2018-07-12T14:38:01.056Z,14.97
2018-07-12T14:40:28.156Z,14.47
2018-07-12T14:42:57.345Z,14.13
2018-07-12T14:45:24.630Z,14.60
2018-07-12T14:47:51.847Z,15.13
2018-07-12T14:50:18.984Z,15.87
2018-07-12T14:52:48.243Z,18.23
2018-07-12T14:55:15.391Z,16.93
2018-07-12T14:57:42.553Z,17.53
2018-07-12T15:00:09.873Z,17.63
2018-07-12T15:02:37.027Z,16.27
2018-07-12T15:05:04.276Z,19.80
2018-07-12T15:07:31.409Z,19.50
2018-07-12T15:09:58.528Z,19.10
2018-07-12T15:12:25.652Z,19.20
2018-07-12T15:14:54.348Z,20.47
2018-07-12T15:17:21.473Z,21.70
2018-07-12T15:19:48.633Z,22.07
2018-07-12T15:22:15.744Z,18.43
2018-07-12T15:24:42.857Z,19.43
2018-07-12T15:27:09.966Z,18.53
2018-07-12T15:29:37.069Z,20.53
2018-07-12T15:32:04.200Z,18.90
2018-07-12T15:34:31.322Z,17.97
2018-07-12T15:36:58.491Z,18.93
2018-07-12T15:39:25.537Z,18.50
2018-07-12T15:41:52.649Z,18.80
2018-07-12T15:44:19.770Z,16.40
2018-07-12T15:46:47.054Z,17.77
2018-07-12T15:49:14.173Z,16.57
2018-07-12T15:51:41.531Z,17.23
2018-07-12T15:54:08.652Z,17.47
2018-07-12T15:56:35.828Z,17.40
2018-07-12T15:59:02.945Z,17.00
2018-07-12T16:01:30.050Z,16.60
2018-07-12T16:03:57.242Z,17.50
2018-07-12T16:06:24.352Z,16.37
2018-07-12T16:08:51.477Z,17.47
2018-07-12T16:11:18.580Z,15.20
2018-07-12T16:13:45.688Z,16.70
2018-07-12T16:16:12.791Z,15.20
2018-07-12T16:18:39.909Z,14.60
2018-07-12T16:21:07.017Z,13.77
2018-07-12T16:23:34.136Z,13.03
2018-07-12T16:26:01.268Z,11.93
2018-07-12T16:28:34.900Z,13.07
2018-07-12T16:31:02.173Z,13.60
2018-07-12T16:33:29.329Z,13.60
2018-07-12T16:35:56.474Z,13.80
2018-07-12T16:38:23.597Z,12.83
2018-07-12T16:40:50.725Z,13.77
2018-07-12T16:43:17.842Z,12.70
2018-07-12T16:45:44.968Z,12.53
2018-07-12T16:48:12.097Z,13.87
2018-07-12T16:50:39.227Z,13.53
2018-07-12T16:53:06.438Z,13.40
2018-07-12T16:55:33.553Z,13.30
2018-07-12T16:58:00.668Z,15.77
2018-07-12T17:00:27.826Z,14.90
2018-07-12T17:02:54.949Z,16.30
2018-07-12T17:05:22.052Z,15.10
2018-07-12T17:07:49.257Z,14.90
2018-07-12T17:10:16.350Z,13.87
2018-07-12T17:12:43.562Z,13.70
2018-07-12T17:15:10.665Z,12.20
2018-07-12T17:17:37.873Z,13.40
2018-07-12T17:20:04.993Z,12.37
2018-07-12T17:22:32.356Z,12.73
2018-07-12T17:24:59.581Z,12.90
2018-07-12T17:27:26.846Z,13.53
2018-07-12T17:29:53.941Z,12.13
2018-07-12T17:32:21.082Z,12.63
2018-07-12T17:34:48.192Z,13.50
2018-07-12T17:37:15.302Z,12.83
2018-07-12T17:39:42.429Z,12.30
2018-07-12T17:42:09.553Z,12.90
2018-07-12T17:44:36.780Z,13.77
2018-07-12T17:47:03.924Z,13.30
2018-07-12T17:49:31.143Z,13.50
2018-07-12T17:51:58.256Z,13.20
2018-07-12T17:54:25.380Z,12.63
2018-07-12T17:56:52.486Z,14.30
2018-07-12T17:59:19.859Z,14.57
2018-07-12T18:01:46.948Z,15.07
2018-07-12T18:04:14.231Z,14.20
2018-07-12T18:06:41.333Z,14.80
2018-07-12T18:09:08.469Z,15.27
2018-07-12T18:11:35.592Z,15.00
2018-07-12T18:14:02.809Z,15.63
2018-07-12T18:16:30.030Z,14.80
2018-07-12T18:18:57.157Z,12.70
2018-07-12T18:21:24.615Z,12.90
2018-07-12T18:23:51.741Z,12.47
2018-07-12T18:26:19.285Z,14.17
2018-07-12T18:28:46.424Z,13.57
2018-07-12T18:31:13.549Z,13.60
2018-07-12T18:33:40.664Z,13.67
2018-07-12T18:36:07.769Z,13.47
2018-07-12T18:38:34.883Z,12.97
2018-07-12T18:41:02.120Z,13.20
2018-07-12T18:43:29.718Z,12.20
2018-07-12T18:45:57.014Z,13.20
2018-07-12T18:48:24.213Z,14.17
2018-07-12T18:50:51.313Z,15.80
2018-07-12T18:53:18.477Z,15.10
2018-07-12T18:55:45.771Z,15.60
2018-07-12T18:58:12.840Z,15.63
2018-07-12T19:00:40.079Z,15.13
2018-07-12T19:03:07.654Z,14.80
2018-07-12T19:05:34.974Z,15.10
2018-07-12T19:08:02.146Z,14.70
2018-07-12T19:10:29.248Z,15.13
2018-07-12T19:12:56.437Z,14.20
2018-07-12T19:15:23.839Z,13.20
2018-07-12T19:17:51.094Z,13.30
2018-07-12T19:20:18.210Z,12.57
2018-07-12T19:22:45.516Z,13.00
2018-07-12T19:25:12.617Z,11.63
2018-07-12T19:27:39.720Z,11.37
2018-07-12T19:30:06.897Z,11.00
2018-07-12T19:32:34.010Z,11.33
2018-07-12T19:35:01.337Z,10.83
2018-07-12T19:37:28.344Z,10.30
2018-07-12T19:39:55.473Z,10.67
2018-07-12T19:42:22.693Z,10.17
2018-07-12T19:44:49.867Z,10.20
2018-07-12T19:47:17.118Z,10.37
2018-07-12T19:49:44.165Z,9.73
2018-07-12T19:52:11.272Z,10.00
2018-07-12T19:54:38.373Z,9.87
2018-07-12T19:57:05.642Z,10.63
2018-07-12T19:59:32.825Z,10.57
2018-07-12T20:02:00.022Z,10.40
2018-07-12T20:04:27.220Z,10.93
2018-07-12T20:06:54.317Z,11.10
2018-07-12T20:09:21.455Z,10.23
2018-07-12T20:11:48.562Z,11.03
2018-07-12T20:14:15.696Z,11.60
2018-07-12T20:16:42.988Z,10.60
2018-07-12T20:19:10.597Z,10.77
2018-07-12T20:21:37.833Z,10.60
2018-07-12T20:24:05.180Z,11.00
2018-07-12T20:26:32.281Z,11.40
2018-07-12T20:28:59.408Z,10.73
2018-07-12T20:31:26.525Z,10.50
2018-07-12T20:33:53.733Z,11.27
2018-07-12T20:36:20.852Z,11.20
2018-07-12T20:38:47.980Z,10.23
2018-07-12T20:41:15.082Z,10.80
2018-07-12T20:43:42.232Z,11.10
2018-07-12T20:46:09.394Z,11.10
2018-07-12T20:48:36.789Z,10.63
2018-07-12T20:51:03.896Z,10.30
2018-07-12T20:53:30.989Z,10.83
2018-07-12T20:55:58.090Z,10.20
2018-07-12T20:58:25.188Z,10.50
2018-07-12T21:00:53.632Z,10.13
2018-07-12T21:03:20.945Z,10.30
2018-07-12T21:05:48.057Z,10.83
2018-07-12T21:08:15.245Z,10.37
2018-07-12T21:10:42.373Z,10.97
2018-07-12T21:13:09.479Z,11.20
2018-07-12T21:15:36.834Z,12.00
2018-07-12T21:18:03.962Z,11.27
2018-07-12T21:20:31.079Z,11.10
2018-07-12T21:22:58.179Z,12.00
2018-07-12T21:25:25.293Z,11.90
2018-07-12T21:27:52.505Z,11.93
2018-07-12T21:30:19.609Z,11.87
2018-07-12T21:32:46.736Z,11.53
2018-07-12T21:35:13.844Z,12.10
2018-07-12T21:37:41.028Z,12.20
2018-07-12T21:40:08.196Z,12.00
2018-07-12T21:42:35.361Z,11.47
2018-07-12T21:45:02.489Z,11.60
2018-07-12T21:47:29.644Z,11.70
2018-07-12T21:49:56.760Z,11.60
2018-07-12T21:52:23.865Z,11.70
2018-07-12T21:54:51.180Z,11.40
2018-07-12T21:57:18.407Z,11.97
2018-07-12T21:59:45.677Z,11.90
2018-07-12T22:02:12.841Z,11.80
2018-07-12T22:04:39.977Z,12.37
2018-07-12T22:07:12.668Z,11.80
2018-07-12T22:09:39.785Z,11.60
2018-07-12T22:12:06.924Z,12.07
2018-07-12T22:14:34.038Z,11.83
2018-07-12T22:17:01.134Z,11.57
2018-07-12T22:19:28.225Z,11.80
2018-07-12T22:21:55.434Z,11.77
2018-07-12T22:24:22.532Z,12.23
2018-07-12T22:26:49.661Z,11.60
2018-07-12T22:29:16.784Z,11.73
2018-07-12T22:31:43.886Z,11.93
2018-07-12T22:34:10.993Z,12.03
2018-07-12T22:36:38.241Z,12.07
2018-07-12T22:39:05.649Z,12.07
2018-07-12T22:41:32.765Z,11.90
2018-07-12T22:43:59.869Z,12.00
2018-07-12T22:46:26.976Z,12.20
2018-07-12T22:48:54.150Z,12.87
2018-07-12T22:51:21.194Z,11.90
2018-07-12T22:53:48.306Z,12.20
2018-07-12T22:56:15.401Z,12.53
2018-07-12T22:58:42.521Z,12.00
2018-07-12T23:01:09.678Z,12.57
2018-07-12T23:03:36.828Z,12.03
2018-07-12T23:06:03.973Z,12.40
2018-07-12T23:08:31.083Z,12.30
2018-07-12T23:10:58.188Z,12.23
2018-07-12T23:13:25.289Z,11.80
2018-07-12T23:15:52.405Z,11.87
2018-07-12T23:18:19.508Z,12.50
2018-07-12T23:20:46.629Z,11.30
2018-07-12T23:23:13.726Z,11.80
2018-07-12T23:25:40.831Z,11.70
2018-07-12T23:28:07.934Z,11.80
2018-07-12T23:30:35.130Z,11.90
2018-07-12T23:33:02.201Z,11.90
2018-07-12T23:35:29.333Z,11.63
2018-07-12T23:37:56.436Z,11.87
2018-07-12T23:40:23.569Z,12.33
2018-07-12T23:42:50.675Z,12.17
2018-07-12T23:45:17.832Z,12.20
2018-07-12T23:47:44.916Z,11.93
2018-07-12T23:50:12.027Z,11.50
2018-07-12T23:52:39.120Z,10.90
2018-07-12T23:55:06.260Z,11.37
2018-07-12T23:57:33.453Z,10.70
